sensor_id;sensor_type;location;lat;lon;timestamp;temperature;humidity
44037;DHT22;62488;-37.670;-63.532;2023-04-03T00:01:04;20.10;99.90
44037;DHT22;62488;-37.670;-63.532;2023-04-03T00:03:32;20.10;99.90
44037;DHT22;62488;-37.670;-63.532;2023-04-03T00:05:59;20.00;99.90
44037;DHT22;62488;-37.670;-63.532;2023-04-03T00:08:26;20.00;99.90
44037;DHT22;62488;-37.670;-63.532;2023-04-03T00:10:56;20.00;99.90
44037;DHT22;62488;-37.670;-63.532;2023-04-03T00:13:24;19.90;99.90
44037;DHT22;62488;-37.670;-63.532;2023-04-03T00:15:51;20.00;99.90
44037;DHT22;62488;-37.670;-63.532;2023-04-03T00:18:18;20.00;99.90
44037;DHT22;62488;-37.670;-63.532;2023-04-03T00:20:47;20.00;99.90
44037;DHT22;62488;-37.670;-63.532;2023-04-03T00:23:14;20.00;99.90
44037;DHT22;62488;-37.670;-63.532;2023-04-03T00:25:41;20.00;99.90
44037;DHT22;62488;-37.670;-63.532;2023-04-03T00:28:09;20.00;99.90
44037;DHT22;62488;-37.670;-63.532;2023-04-03T00:30:36;20.00;99.90
44037;DHT22;62488;-37.670;-63.532;2023-04-03T00:33:03;20.00;99.90
44037;DHT22;62488;-37.670;-63.532;2023-04-03T00:35:33;20.00;99.90
44037;DHT22;62488;-37.670;-63.532;2023-04-03T00:38:01;19.90;99.90
44037;DHT22;62488;-37.670;-63.532;2023-04-03T00:40:32;19.90;99.90
44037;DHT22;62488;-37.670;-63.532;2023-04-03T00:43:00;19.90;99.90
44037;DHT22;62488;-37.670;-63.532;2023-04-03T00:48:00;20.00;99.90
44037;DHT22;62488;-37.670;-63.532;2023-04-03T00:50:28;19.90;99.90
44037;DHT22;62488;-37.670;-63.532;2023-04-03T00:52:57;19.90;99.90
44037;DHT22;62488;-37.670;-63.532;2023-04-03T00:55:24;19.80;99.90
44037;DHT22;62488;-37.670;-63.532;2023-04-03T00:57:53;19.70;99.90
44037;DHT22;62488;-37.670;-63.532;2023-04-03T01:00:25;19.60;99.90
44037;DHT22;62488;-37.670;-63.532;2023-04-03T01:02:53;19.50;99.90
44037;DHT22;62488;-37.670;-63.532;2023-04-03T01:05:21;19.40;99.90
44037;DHT22;62488;-37.670;-63.532;2023-04-03T01:07:50;19.40;99.90
44037;DHT22;62488;-37.670;-63.532;2023-04-03T01:10:18;19.50;99.90
44037;DHT22;62488;-37.670;-63.532;2023-04-03T01:12:49;19.40;99.90
44037;DHT22;62488;-37.670;-63.532;2023-04-03T01:15:27;19.50;99.90
44037;DHT22;62488;-37.670;-63.532;2023-04-03T01:17:58;19.60;99.90
44037;DHT22;62488;-37.670;-63.532;2023-04-03T01:25:50;19.30;99.90
44037;DHT22;62488;-37.670;-63.532;2023-04-03T01:28:30;19.20;99.90
44037;DHT22;62488;-37.670;-63.532;2023-04-03T01:31:03;19.00;99.90
44037;DHT22;62488;-37.670;-63.532;2023-04-03T01:33:34;18.90;99.90
44037;DHT22;62488;-37.670;-63.532;2023-04-03T01:36:01;18.90;99.90
44037;DHT22;62488;-37.670;-63.532;2023-04-03T01:38:29;18.80;99.90
44037;DHT22;62488;-37.670;-63.532;2023-04-03T01:40:56;18.70;99.90
44037;DHT22;62488;-37.670;-63.532;2023-04-03T01:43:23;18.50;99.90
44037;DHT22;62488;-37.670;-63.532;2023-04-03T01:45:50;18.50;99.90
44037;DHT22;62488;-37.670;-63.532;2023-04-03T01:48:20;18.30;99.90
44037;DHT22;62488;-37.670;-63.532;2023-04-03T01:50:47;18.20;99.90
44037;DHT22;62488;-37.670;-63.532;2023-04-03T01:53:14;18.10;99.90
44037;DHT22;62488;-37.670;-63.532;2023-04-03T01:55:41;17.90;99.90
44037;DHT22;62488;-37.670;-63.532;2023-04-03T01:58:08;17.80;99.90
44037;DHT22;62488;-37.670;-63.532;2023-04-03T02:00:35;17.60;99.90
44037;DHT22;62488;-37.670;-63.532;2023-04-03T02:03:03;17.50;99.90
44037;DHT22;62488;-37.670;-63.532;2023-04-03T02:05:30;17.40;99.90
44037;DHT22;62488;-37.670;-63.532;2023-04-03T02:07:57;17.40;99.90
44037;DHT22;62488;-37.670;-63.532;2023-04-03T02:10:24;17.30;99.90
44037;DHT22;62488;-37.670;-63.532;2023-04-03T02:12:51;17.20;99.90
44037;DHT22;62488;-37.670;-63.532;2023-04-03T02:15:18;17.20;99.90
44037;DHT22;62488;-37.670;-63.532;2023-04-03T02:17:45;17.10;99.90
44037;DHT22;62488;-37.670;-63.532;2023-04-03T02:20:12;17.10;99.90
44037;DHT22;62488;-37.670;-63.532;2023-04-03T02:22:39;17.00;99.90
44037;DHT22;62488;-37.670;-63.532;2023-04-03T02:25:06;17.00;99.90
44037;DHT22;62488;-37.670;-63.532;2023-04-03T02:27:34;16.90;99.90
44037;DHT22;62488;-37.670;-63.532;2023-04-03T02:30:02;16.80;99.90
44037;DHT22;62488;-37.670;-63.532;2023-04-03T02:32:29;16.90;99.90
44037;DHT22;62488;-37.670;-63.532;2023-04-03T02:34:56;16.80;99.90
44037;DHT22;62488;-37.670;-63.532;2023-04-03T02:37:23;16.80;99.90
44037;DHT22;62488;-37.670;-63.532;2023-04-03T02:39:50;16.80;99.90
44037;DHT22;62488;-37.670;-63.532;2023-04-03T02:42:17;16.70;99.90
44037;DHT22;62488;-37.670;-63.532;2023-04-03T02:44:44;16.70;99.90
44037;DHT22;62488;-37.670;-63.532;2023-04-03T02:47:11;16.70;99.90
44037;DHT22;62488;-37.670;-63.532;2023-04-03T02:49:38;16.60;99.90
44037;DHT22;62488;-37.670;-63.532;2023-04-03T02:52:05;16.60;99.90
44037;DHT22;62488;-37.670;-63.532;2023-04-03T02:54:32;16.60;99.90
44037;DHT22;62488;-37.670;-63.532;2023-04-03T02:56:59;16.50;99.90
44037;DHT22;62488;-37.670;-63.532;2023-04-03T02:59:27;16.60;99.90
44037;DHT22;62488;-37.670;-63.532;2023-04-03T03:01:54;16.50;99.90
44037;DHT22;62488;-37.670;-63.532;2023-04-03T03:04:22;16.50;99.90
44037;DHT22;62488;-37.670;-63.532;2023-04-03T03:06:49;16.40;99.90
44037;DHT22;62488;-37.670;-63.532;2023-04-03T03:09:18;16.40;99.90
44037;DHT22;62488;-37.670;-63.532;2023-04-03T03:11:45;16.30;99.90
44037;DHT22;62488;-37.670;-63.532;2023-04-03T03:14:12;16.30;99.90
44037;DHT22;62488;-37.670;-63.532;2023-04-03T03:16:39;16.30;99.90
44037;DHT22;62488;-37.670;-63.532;2023-04-03T03:19:06;16.30;99.90
44037;DHT22;62488;-37.670;-63.532;2023-04-03T03:21:33;16.20;99.90
44037;DHT22;62488;-37.670;-63.532;2023-04-03T03:24:01;16.20;99.90
44037;DHT22;62488;-37.670;-63.532;2023-04-03T03:26:28;16.30;99.90
44037;DHT22;62488;-37.670;-63.532;2023-04-03T03:28:55;16.20;99.90
44037;DHT22;62488;-37.670;-63.532;2023-04-03T03:31:22;16.20;99.90
44037;DHT22;62488;-37.670;-63.532;2023-04-03T03:33:49;16.20;99.90
44037;DHT22;62488;-37.670;-63.532;2023-04-03T03:36:16;16.10;99.90
44037;DHT22;62488;-37.670;-63.532;2023-04-03T03:38:43;16.00;99.90
44037;DHT22;62488;-37.670;-63.532;2023-04-03T03:41:10;15.90;99.90
44037;DHT22;62488;-37.670;-63.532;2023-04-03T03:43:37;16.00;99.90
44037;DHT22;62488;-37.670;-63.532;2023-04-03T03:46:04;15.90;99.90
44037;DHT22;62488;-37.670;-63.532;2023-04-03T03:48:31;15.90;99.90
44037;DHT22;62488;-37.670;-63.532;2023-04-03T03:50:58;15.90;99.90
44037;DHT22;62488;-37.670;-63.532;2023-04-03T03:53:25;15.90;99.90
44037;DHT22;62488;-37.670;-63.532;2023-04-03T03:55:52;15.90;99.90
44037;DHT22;62488;-37.670;-63.532;2023-04-03T03:58:19;15.90;99.90
44037;DHT22;62488;-37.670;-63.532;2023-04-03T04:00:46;15.90;99.90
44037;DHT22;62488;-37.670;-63.532;2023-04-03T04:03:13;15.90;99.90
44037;DHT22;62488;-37.670;-63.532;2023-04-03T04:05:40;15.90;99.90
44037;DHT22;62488;-37.670;-63.532;2023-04-03T04:08:07;15.90;99.90
44037;DHT22;62488;-37.670;-63.532;2023-04-03T04:10:35;15.80;99.90
44037;DHT22;62488;-37.670;-63.532;2023-04-03T04:13:04;15.80;99.90
44037;DHT22;62488;-37.670;-63.532;2023-04-03T04:15:31;15.70;99.90
44037;DHT22;62488;-37.670;-63.532;2023-04-03T04:17:58;15.70;99.90
44037;DHT22;62488;-37.670;-63.532;2023-04-03T04:20:25;15.80;99.90
44037;DHT22;62488;-37.670;-63.532;2023-04-03T04:22:52;15.70;99.90
44037;DHT22;62488;-37.670;-63.532;2023-04-03T04:25:19;15.70;99.90
44037;DHT22;62488;-37.670;-63.532;2023-04-03T04:27:46;15.60;99.90
44037;DHT22;62488;-37.670;-63.532;2023-04-03T04:30:14;15.60;99.90
44037;DHT22;62488;-37.670;-63.532;2023-04-03T04:32:41;15.60;99.90
44037;DHT22;62488;-37.670;-63.532;2023-04-03T04:35:08;15.60;99.90
44037;DHT22;62488;-37.670;-63.532;2023-04-03T04:37:35;15.60;99.90
44037;DHT22;62488;-37.670;-63.532;2023-04-03T04:40:02;15.60;99.90
44037;DHT22;62488;-37.670;-63.532;2023-04-03T04:42:30;15.60;99.90
44037;DHT22;62488;-37.670;-63.532;2023-04-03T04:44:56;15.60;99.90
44037;DHT22;62488;-37.670;-63.532;2023-04-03T04:47:23;15.60;99.90
44037;DHT22;62488;-37.670;-63.532;2023-04-03T04:49:51;15.60;99.90
44037;DHT22;62488;-37.670;-63.532;2023-04-03T04:52:18;15.60;99.90
44037;DHT22;62488;-37.670;-63.532;2023-04-03T04:54:45;15.50;99.90
44037;DHT22;62488;-37.670;-63.532;2023-04-03T04:57:12;15.50;99.90
44037;DHT22;62488;-37.670;-63.532;2023-04-03T04:59:39;15.50;99.90
44037;DHT22;62488;-37.670;-63.532;2023-04-03T05:02:06;15.50;99.90
44037;DHT22;62488;-37.670;-63.532;2023-04-03T05:04:33;15.50;99.90
44037;DHT22;62488;-37.670;-63.532;2023-04-03T05:07:00;15.40;99.90
44037;DHT22;62488;-37.670;-63.532;2023-04-03T05:09:27;15.40;99.90
44037;DHT22;62488;-37.670;-63.532;2023-04-03T05:11:54;15.40;99.90
44037;DHT22;62488;-37.670;-63.532;2023-04-03T05:14:22;15.30;99.90
44037;DHT22;62488;-37.670;-63.532;2023-04-03T05:16:49;15.30;99.90
44037;DHT22;62488;-37.670;-63.532;2023-04-03T05:19:20;15.20;99.90
44037;DHT22;62488;-37.670;-63.532;2023-04-03T05:21:48;15.20;99.90
44037;DHT22;62488;-37.670;-63.532;2023-04-03T05:24:16;15.10;99.90
44037;DHT22;62488;-37.670;-63.532;2023-04-03T05:26:43;15.10;99.90
44037;DHT22;62488;-37.670;-63.532;2023-04-03T05:29:11;15.00;99.90
44037;DHT22;62488;-37.670;-63.532;2023-04-03T05:31:38;14.90;99.90
44037;DHT22;62488;-37.670;-63.532;2023-04-03T05:34:05;14.90;99.90
44037;DHT22;62488;-37.670;-63.532;2023-04-03T05:36:32;14.80;99.90
44037;DHT22;62488;-37.670;-63.532;2023-04-03T05:38:59;14.70;99.90
44037;DHT22;62488;-37.670;-63.532;2023-04-03T05:41:26;14.70;99.90
44037;DHT22;62488;-37.670;-63.532;2023-04-03T05:43:53;14.80;99.90
44037;DHT22;62488;-37.670;-63.532;2023-04-03T05:46:20;14.80;99.90
44037;DHT22;62488;-37.670;-63.532;2023-04-03T05:48:48;14.80;99.90
44037;DHT22;62488;-37.670;-63.532;2023-04-03T05:51:18;14.70;99.90
44037;DHT22;62488;-37.670;-63.532;2023-04-03T05:53:47;14.70;99.90
44037;DHT22;62488;-37.670;-63.532;2023-04-03T05:56:14;14.60;99.90
44037;DHT22;62488;-37.670;-63.532;2023-04-03T05:58:41;14.60;99.90
44037;DHT22;62488;-37.670;-63.532;2023-04-03T06:01:08;14.60;99.90
44037;DHT22;62488;-37.670;-63.532;2023-04-03T06:03:36;14.60;99.90
44037;DHT22;62488;-37.670;-63.532;2023-04-03T06:06:04;14.50;99.90
44037;DHT22;62488;-37.670;-63.532;2023-04-03T06:08:31;14.50;99.90
44037;DHT22;62488;-37.670;-63.532;2023-04-03T06:10:59;14.50;99.90
44037;DHT22;62488;-37.670;-63.532;2023-04-03T06:13:27;14.40;99.90
44037;DHT22;62488;-37.670;-63.532;2023-04-03T06:15:54;14.30;99.90
44037;DHT22;62488;-37.670;-63.532;2023-04-03T06:18:22;14.20;99.90
44037;DHT22;62488;-37.670;-63.532;2023-04-03T06:20:49;14.20;99.90
44037;DHT22;62488;-37.670;-63.532;2023-04-03T06:23:17;14.20;99.90
44037;DHT22;62488;-37.670;-63.532;2023-04-03T06:25:44;14.20;99.90
44037;DHT22;62488;-37.670;-63.532;2023-04-03T06:28:11;14.30;99.90
44037;DHT22;62488;-37.670;-63.532;2023-04-03T06:30:38;14.40;99.90
44037;DHT22;62488;-37.670;-63.532;2023-04-03T06:33:05;14.50;99.90
44037;DHT22;62488;-37.670;-63.532;2023-04-03T06:35:32;14.50;99.90
44037;DHT22;62488;-37.670;-63.532;2023-04-03T06:38:01;14.50;99.90
44037;DHT22;62488;-37.670;-63.532;2023-04-03T06:40:30;14.40;99.90
44037;DHT22;62488;-37.670;-63.532;2023-04-03T06:42:57;14.40;99.90
44037;DHT22;62488;-37.670;-63.532;2023-04-03T06:45:25;14.30;99.90
44037;DHT22;62488;-37.670;-63.532;2023-04-03T06:47:52;14.40;99.90
44037;DHT22;62488;-37.670;-63.532;2023-04-03T06:50:19;14.40;99.90
44037;DHT22;62488;-37.670;-63.532;2023-04-03T06:52:46;14.40;99.90
44037;DHT22;62488;-37.670;-63.532;2023-04-03T06:55:13;14.30;99.90
44037;DHT22;62488;-37.670;-63.532;2023-04-03T06:57:41;14.30;99.90
44037;DHT22;62488;-37.670;-63.532;2023-04-03T07:00:08;14.20;99.90
44037;DHT22;62488;-37.670;-63.532;2023-04-03T07:02:36;14.20;99.90
44037;DHT22;62488;-37.670;-63.532;2023-04-03T07:05:03;14.20;99.90
44037;DHT22;62488;-37.670;-63.532;2023-04-03T07:07:31;14.10;99.90
44037;DHT22;62488;-37.670;-63.532;2023-04-03T07:10:00;14.10;99.90
44037;DHT22;62488;-37.670;-63.532;2023-04-03T07:12:27;14.00;99.90
44037;DHT22;62488;-37.670;-63.532;2023-04-03T07:14:55;14.00;99.90
44037;DHT22;62488;-37.670;-63.532;2023-04-03T07:17:22;14.00;99.90
44037;DHT22;62488;-37.670;-63.532;2023-04-03T07:19:49;14.00;99.90
44037;DHT22;62488;-37.670;-63.532;2023-04-03T07:22:16;14.00;99.90
44037;DHT22;62488;-37.670;-63.532;2023-04-03T07:24:43;14.00;99.90
44037;DHT22;62488;-37.670;-63.532;2023-04-03T07:27:10;13.90;99.90
44037;DHT22;62488;-37.670;-63.532;2023-04-03T07:29:39;13.90;99.90
44037;DHT22;62488;-37.670;-63.532;2023-04-03T07:32:06;13.90;99.90
44037;DHT22;62488;-37.670;-63.532;2023-04-03T07:34:33;13.90;99.90
44037;DHT22;62488;-37.670;-63.532;2023-04-03T07:37:01;13.90;99.90
44037;DHT22;62488;-37.670;-63.532;2023-04-03T07:39:29;13.90;99.90
44037;DHT22;62488;-37.670;-63.532;2023-04-03T07:41:56;13.90;99.90
44037;DHT22;62488;-37.670;-63.532;2023-04-03T07:44:23;13.90;99.90
44037;DHT22;62488;-37.670;-63.532;2023-04-03T07:46:50;14.00;99.90
44037;DHT22;62488;-37.670;-63.532;2023-04-03T07:49:17;13.90;99.90
44037;DHT22;62488;-37.670;-63.532;2023-04-03T07:51:45;14.00;99.90
44037;DHT22;62488;-37.670;-63.532;2023-04-03T07:54:13;13.90;99.90
44037;DHT22;62488;-37.670;-63.532;2023-04-03T07:56:40;13.90;99.90
44037;DHT22;62488;-37.670;-63.532;2023-04-03T07:59:10;13.90;99.90
44037;DHT22;62488;-37.670;-63.532;2023-04-03T08:01:38;13.90;99.90
44037;DHT22;62488;-37.670;-63.532;2023-04-03T08:04:05;14.00;99.90
44037;DHT22;62488;-37.670;-63.532;2023-04-03T08:06:33;14.00;99.90
44037;DHT22;62488;-37.670;-63.532;2023-04-03T08:09:03;14.00;99.90
44037;DHT22;62488;-37.670;-63.532;2023-04-03T08:11:30;14.10;99.90
44037;DHT22;62488;-37.670;-63.532;2023-04-03T08:14:00;14.10;99.90
44037;DHT22;62488;-37.670;-63.532;2023-04-03T08:16:28;14.00;99.90
44037;DHT22;62488;-37.670;-63.532;2023-04-03T08:18:56;14.00;99.90
44037;DHT22;62488;-37.670;-63.532;2023-04-03T08:21:23;13.90;99.90
44037;DHT22;62488;-37.670;-63.532;2023-04-03T08:23:50;13.90;99.90
44037;DHT22;62488;-37.670;-63.532;2023-04-03T08:26:20;13.90;99.90
44037;DHT22;62488;-37.670;-63.532;2023-04-03T08:28:49;13.90;99.90
44037;DHT22;62488;-37.670;-63.532;2023-04-03T08:31:18;13.90;99.90
44037;DHT22;62488;-37.670;-63.532;2023-04-03T08:33:47;13.90;99.90
44037;DHT22;62488;-37.670;-63.532;2023-04-03T08:36:27;13.90;99.90
44037;DHT22;62488;-37.670;-63.532;2023-04-03T08:38:57;13.80;99.90
44037;DHT22;62488;-37.670;-63.532;2023-04-03T08:49:52;13.70;99.90
44037;DHT22;62488;-37.670;-63.532;2023-04-03T08:52:49;13.80;99.90
44037;DHT22;62488;-37.670;-63.532;2023-04-03T08:56:00;13.70;99.90
44037;DHT22;62488;-37.670;-63.532;2023-04-03T08:58:22;13.70;99.90
44037;DHT22;62488;-37.670;-63.532;2023-04-03T09:01:01;13.80;99.90
44037;DHT22;62488;-37.670;-63.532;2023-04-03T09:03:36;13.80;99.90
44037;DHT22;62488;-37.670;-63.532;2023-04-03T09:06:14;13.70;99.90
44037;DHT22;62488;-37.670;-63.532;2023-04-03T09:12:17;13.80;99.90
44037;DHT22;62488;-37.670;-63.532;2023-04-03T09:20:09;13.70;99.90
44037;DHT22;62488;-37.670;-63.532;2023-04-03T09:22:41;13.60;99.90
44037;DHT22;62488;-37.670;-63.532;2023-04-03T09:25:23;13.60;99.90
44037;DHT22;62488;-37.670;-63.532;2023-04-03T09:27:52;13.50;99.90
44037;DHT22;62488;-37.670;-63.532;2023-04-03T09:30:23;13.50;99.90
44037;DHT22;62488;-37.670;-63.532;2023-04-03T09:32:52;13.40;99.90
44037;DHT22;62488;-37.670;-63.532;2023-04-03T09:35:36;13.20;99.90
44037;DHT22;62488;-37.670;-63.532;2023-04-03T09:40:41;13.20;99.90
44037;DHT22;62488;-37.670;-63.532;2023-04-03T09:45:48;13.20;99.90
44037;DHT22;62488;-37.670;-63.532;2023-04-03T09:48:19;13.20;99.90
44037;DHT22;62488;-37.670;-63.532;2023-04-03T09:51:00;13.10;99.90
44037;DHT22;62488;-37.670;-63.532;2023-04-03T09:53:35;13.00;99.90
44037;DHT22;62488;-37.670;-63.532;2023-04-03T09:56:30;13.00;99.90
44037;DHT22;62488;-37.670;-63.532;2023-04-03T10:04:15;13.00;99.90
44037;DHT22;62488;-37.670;-63.532;2023-04-03T10:06:48;13.00;99.90
44037;DHT22;62488;-37.670;-63.532;2023-04-03T10:09:23;13.00;99.90
44037;DHT22;62488;-37.670;-63.532;2023-04-03T10:12:11;13.00;99.90
44037;DHT22;62488;-37.670;-63.532;2023-04-03T10:20:21;13.00;99.90
44037;DHT22;62488;-37.670;-63.532;2023-04-03T10:29:04;13.00;99.90
44037;DHT22;62488;-37.670;-63.532;2023-04-03T10:34:55;13.20;99.90
44037;DHT22;62488;-37.670;-63.532;2023-04-03T10:42:50;13.40;99.90
44037;DHT22;62488;-37.670;-63.532;2023-04-03T10:51:40;13.80;99.90
44037;DHT22;62488;-37.670;-63.532;2023-04-03T10:57:03;13.90;99.90
44037;DHT22;62488;-37.670;-63.532;2023-04-03T10:59:44;13.90;99.90
44037;DHT22;62488;-37.670;-63.532;2023-04-03T11:02:23;14.00;99.90
44037;DHT22;62488;-37.670;-63.532;2023-04-03T11:05:04;14.00;99.90
44037;DHT22;62488;-37.670;-63.532;2023-04-03T11:07:40;14.00;99.90
44037;DHT22;62488;-37.670;-63.532;2023-04-03T11:10:27;14.20;99.90
44037;DHT22;62488;-37.670;-63.532;2023-04-03T11:15:43;14.50;99.90
44037;DHT22;62488;-37.670;-63.532;2023-04-03T11:18:27;14.60;99.90
44037;DHT22;62488;-37.670;-63.532;2023-04-03T11:21:06;14.60;99.90
44037;DHT22;62488;-37.670;-63.532;2023-04-03T11:23:40;14.60;99.90
44037;DHT22;62488;-37.670;-63.532;2023-04-03T11:26:12;14.60;99.90
44037;DHT22;62488;-37.670;-63.532;2023-04-03T11:28:40;14.60;99.90
44037;DHT22;62488;-37.670;-63.532;2023-04-03T11:36:58;14.70;99.90
44037;DHT22;62488;-37.670;-63.532;2023-04-03T11:39:32;14.70;99.90
44037;DHT22;62488;-37.670;-63.532;2023-04-03T11:47:53;14.70;99.90
44037;DHT22;62488;-37.670;-63.532;2023-04-03T11:50:48;14.70;99.90
44037;DHT22;62488;-37.670;-63.532;2023-04-03T11:58:24;14.70;99.90
44037;DHT22;62488;-37.670;-63.532;2023-04-03T12:01:01;14.70;99.90
44037;DHT22;62488;-37.670;-63.532;2023-04-03T12:03:30;14.80;99.90
44037;DHT22;62488;-37.670;-63.532;2023-04-03T12:08:54;15.00;99.90
44037;DHT22;62488;-37.670;-63.532;2023-04-03T12:11:32;15.10;99.90
44037;DHT22;62488;-37.670;-63.532;2023-04-03T12:14:02;15.10;99.90
44037;DHT22;62488;-37.670;-63.532;2023-04-03T12:16:42;15.20;99.90
44037;DHT22;62488;-37.670;-63.532;2023-04-03T12:19:30;15.20;99.90
44037;DHT22;62488;-37.670;-63.532;2023-04-03T12:24:32;15.50;99.90
44037;DHT22;62488;-37.670;-63.532;2023-04-03T12:29:51;15.50;99.90
44037;DHT22;62488;-37.670;-63.532;2023-04-03T12:32:35;15.50;99.90
44037;DHT22;62488;-37.670;-63.532;2023-04-03T12:38:25;15.50;99.90
44037;DHT22;62488;-37.670;-63.532;2023-04-03T12:41:17;15.50;99.90
44037;DHT22;62488;-37.670;-63.532;2023-04-03T12:46:48;15.60;99.90
44037;DHT22;62488;-37.670;-63.532;2023-04-03T12:49:40;15.80;99.90
44037;DHT22;62488;-37.670;-63.532;2023-04-03T12:54:58;16.30;99.90
44037;DHT22;62488;-37.670;-63.532;2023-04-03T12:57:27;17.20;99.90
44037;DHT22;62488;-37.670;-63.532;2023-04-03T12:59:54;18.20;99.90
44037;DHT22;62488;-37.670;-63.532;2023-04-03T13:05:05;19.00;99.90
44037;DHT22;62488;-37.670;-63.532;2023-04-03T13:07:34;18.70;99.90
44037;DHT22;62488;-37.670;-63.532;2023-04-03T13:10:16;19.10;99.90
44037;DHT22;62488;-37.670;-63.532;2023-04-03T13:12:50;19.00;99.90
44037;DHT22;62488;-37.670;-63.532;2023-04-03T13:15:22;18.80;99.90
44037;DHT22;62488;-37.670;-63.532;2023-04-03T13:17:51;18.70;99.90
44037;DHT22;62488;-37.670;-63.532;2023-04-03T13:20:32;18.90;99.90
44037;DHT22;62488;-37.670;-63.532;2023-04-03T13:23:04;19.40;99.90
44037;DHT22;62488;-37.670;-63.532;2023-04-03T13:25:35;20.50;99.90
44037;DHT22;62488;-37.670;-63.532;2023-04-03T13:28:05;20.90;99.90
44037;DHT22;62488;-37.670;-63.532;2023-04-03T13:30:38;21.30;99.90
44037;DHT22;62488;-37.670;-63.532;2023-04-03T13:33:19;22.10;99.90
44037;DHT22;62488;-37.670;-63.532;2023-04-03T13:35:47;21.70;99.90
44037;DHT22;62488;-37.670;-63.532;2023-04-03T13:40:55;20.60;99.90
44037;DHT22;62488;-37.670;-63.532;2023-04-03T13:43:27;21.00;99.90
44037;DHT22;62488;-37.670;-63.532;2023-04-03T13:46:00;21.40;99.90
44037;DHT22;62488;-37.670;-63.532;2023-04-03T13:51:22;21.60;99.90
44037;DHT22;62488;-37.670;-63.532;2023-04-03T13:53:59;21.30;99.90
44037;DHT22;62488;-37.670;-63.532;2023-04-03T13:56:36;20.90;99.90
44037;DHT22;62488;-37.670;-63.532;2023-04-03T13:59:22;20.60;99.90
44037;DHT22;62488;-37.670;-63.532;2023-04-03T14:02:08;20.30;99.90
44037;DHT22;62488;-37.670;-63.532;2023-04-03T14:07:12;20.00;99.90
44037;DHT22;62488;-37.670;-63.532;2023-04-03T14:09:39;20.00;99.90
44037;DHT22;62488;-37.670;-63.532;2023-04-03T14:12:12;19.90;99.90
44037;DHT22;62488;-37.670;-63.532;2023-04-03T14:14:41;19.90;99.90
44037;DHT22;62488;-37.670;-63.532;2023-04-03T14:17:21;20.00;99.90
44037;DHT22;62488;-37.670;-63.532;2023-04-03T14:19:50;20.50;99.90
44037;DHT22;62488;-37.670;-63.532;2023-04-03T14:22:26;20.70;99.90
44037;DHT22;62488;-37.670;-63.532;2023-04-03T14:24:55;20.90;99.90
44037;DHT22;62488;-37.670;-63.532;2023-04-03T14:29:54;21.70;99.90
44037;DHT22;62488;-37.670;-63.532;2023-04-03T14:32:23;21.40;99.90
44037;DHT22;62488;-37.670;-63.532;2023-04-03T14:34:51;21.20;99.90
44037;DHT22;62488;-37.670;-63.532;2023-04-03T14:37:22;21.60;99.90
44037;DHT22;62488;-37.670;-63.532;2023-04-03T14:39:52;22.60;99.90
44037;DHT22;62488;-37.670;-63.532;2023-04-03T14:42:29;23.50;99.90
44037;DHT22;62488;-37.670;-63.532;2023-04-03T14:44:58;23.80;99.90
44037;DHT22;62488;-37.670;-63.532;2023-04-03T14:47:27;24.40;99.90
44037;DHT22;62488;-37.670;-63.532;2023-04-03T14:49:55;24.70;99.90
44037;DHT22;62488;-37.670;-63.532;2023-04-03T14:52:32;25.00;99.90
44037;DHT22;62488;-37.670;-63.532;2023-04-03T14:54:59;25.50;99.90
44037;DHT22;62488;-37.670;-63.532;2023-04-03T14:57:29;25.10;99.90
44037;DHT22;62488;-37.670;-63.532;2023-04-03T14:59:56;24.60;99.90
44037;DHT22;62488;-37.670;-63.532;2023-04-03T15:02:32;23.80;99.90
44037;DHT22;62488;-37.670;-63.532;2023-04-03T15:05:01;23.80;99.90
44037;DHT22;62488;-37.670;-63.532;2023-04-03T15:07:38;23.80;99.90
44037;DHT22;62488;-37.670;-63.532;2023-04-03T15:10:21;24.00;99.90
44037;DHT22;62488;-37.670;-63.532;2023-04-03T15:12:50;23.50;99.90
44037;DHT22;62488;-37.670;-63.532;2023-04-03T15:15:19;23.70;99.90
44037;DHT22;62488;-37.670;-63.532;2023-04-03T15:17:51;24.00;99.90
44037;DHT22;62488;-37.670;-63.532;2023-04-03T15:20:38;24.10;99.90
44037;DHT22;62488;-37.670;-63.532;2023-04-03T15:23:06;24.00;99.90
44037;DHT22;62488;-37.670;-63.532;2023-04-03T15:25:33;24.40;99.90
44037;DHT22;62488;-37.670;-63.532;2023-04-03T15:28:00;24.30;99.90
44037;DHT22;62488;-37.670;-63.532;2023-04-03T15:30:27;24.20;99.90
44037;DHT22;62488;-37.670;-63.532;2023-04-03T15:32:54;24.20;99.90
44037;DHT22;62488;-37.670;-63.532;2023-04-03T15:35:21;23.80;99.90
44037;DHT22;62488;-37.670;-63.532;2023-04-03T15:37:48;24.00;99.90
44037;DHT22;62488;-37.670;-63.532;2023-04-03T15:40:17;23.90;99.90
44037;DHT22;62488;-37.670;-63.532;2023-04-03T15:42:44;23.60;99.90
44037;DHT22;62488;-37.670;-63.532;2023-04-03T15:45:12;23.80;99.90
44037;DHT22;62488;-37.670;-63.532;2023-04-03T15:47:39;24.00;99.90
44037;DHT22;62488;-37.670;-63.532;2023-04-03T15:50:06;24.10;99.90
44037;DHT22;62488;-37.670;-63.532;2023-04-03T15:52:34;24.60;99.90
44037;DHT22;62488;-37.670;-63.532;2023-04-03T15:55:02;24.90;99.90
44037;DHT22;62488;-37.670;-63.532;2023-04-03T15:57:29;25.00;99.90
44037;DHT22;62488;-37.670;-63.532;2023-04-03T15:59:56;25.40;99.90
44037;DHT22;62488;-37.670;-63.532;2023-04-03T16:02:23;25.50;99.80
44037;DHT22;62488;-37.670;-63.532;2023-04-03T16:04:54;25.40;99.90
44037;DHT22;62488;-37.670;-63.532;2023-04-03T16:07:22;25.20;99.30
44037;DHT22;62488;-37.670;-63.532;2023-04-03T16:09:49;25.40;99.90
44037;DHT22;62488;-37.670;-63.532;2023-04-03T16:12:16;24.80;99.90
44037;DHT22;62488;-37.670;-63.532;2023-04-03T16:14:43;25.20;99.90
44037;DHT22;62488;-37.670;-63.532;2023-04-03T16:17:10;25.50;99.90
44037;DHT22;62488;-37.670;-63.532;2023-04-03T16:19:38;25.50;99.00
44037;DHT22;62488;-37.670;-63.532;2023-04-03T16:22:05;25.50;99.40
44037;DHT22;62488;-37.670;-63.532;2023-04-03T16:24:34;25.50;99.70
44037;DHT22;62488;-37.670;-63.532;2023-04-03T16:27:02;26.00;99.10
44037;DHT22;62488;-37.670;-63.532;2023-04-03T16:29:29;24.90;99.90
44037;DHT22;62488;-37.670;-63.532;2023-04-03T16:31:57;24.90;99.90
44037;DHT22;62488;-37.670;-63.532;2023-04-03T16:34:25;25.20;99.90
44037;DHT22;62488;-37.670;-63.532;2023-04-03T16:36:52;25.50;99.20
44037;DHT22;62488;-37.670;-63.532;2023-04-03T16:39:19;25.90;98.70
44037;DHT22;62488;-37.670;-63.532;2023-04-03T16:41:46;26.00;99.00
44037;DHT22;62488;-37.670;-63.532;2023-04-03T16:44:13;25.80;98.10
44037;DHT22;62488;-37.670;-63.532;2023-04-03T16:46:40;25.80;98.50
44037;DHT22;62488;-37.670;-63.532;2023-04-03T16:49:08;25.80;98.60
44037;DHT22;62488;-37.670;-63.532;2023-04-03T16:51:35;26.10;98.40
44037;DHT22;62488;-37.670;-63.532;2023-04-03T16:54:02;26.10;98.40
44037;DHT22;62488;-37.670;-63.532;2023-04-03T16:56:29;26.30;98.00
44037;DHT22;62488;-37.670;-63.532;2023-04-03T16:58:56;26.20;98.00